Silver Ford, Pennsylvania
Current Conditions -  °F | °C
As of 6:53 AM on Monday 22 Dec 2014 (Local Time) from KAOO Reporting Station
Overcast Overcast  
Wind Chill: 24°   Ceiling: 2800
Heat Index: 24°   Visibility: 7mi
Dew Point: 22°   Wind: 0mph
Humidity: 91%   Direction: NA
Pressure: 30.21"   Gusts: NA
Location:  40.4281°N, 77.8329°W
Report Text: KAOO 221153Z AUTO 00000KT 7SM OVC028 M04/M06 A3021 RMK AO2 SLP249 I6000 T10441056 11044 21072 53001
Loading
Personal Weather Stations






























Interactive Weather Map New forecast layout! Learn more

10-Day Weather Forecast

Advertisements
Track Severe Weather on mobile